createdAt,value
2018-09-04T00:02:26.146Z,95.20
2018-09-04T00:07:29.249Z,95.70
2018-09-04T00:12:32.333Z,95.50
2018-09-04T00:17:35.417Z,95.90
2018-09-04T00:22:38.533Z,95.40
2018-09-04T00:27:41.629Z,96.50
2018-09-04T00:32:44.712Z,95.90
2018-09-04T00:37:47.798Z,96.40
2018-09-04T00:42:50.873Z,96.80
2018-09-04T00:47:53.949Z,96.70
2018-09-04T00:52:57.053Z,96.90
2018-09-04T00:58:00.126Z,96.50
2018-09-04T01:03:03.228Z,96.50
2018-09-04T01:08:06.333Z,96.80
2018-09-04T01:13:09.413Z,96.70
2018-09-04T01:18:12.504Z,96.80
2018-09-04T01:23:15.586Z,97.20
2018-09-04T01:28:18.666Z,98.00
2018-09-04T01:33:21.754Z,97.60
2018-09-04T01:38:24.857Z,97.60
2018-09-04T01:43:27.943Z,97.40
2018-09-04T02:04:56.330Z,96.70
2018-09-04T02:09:59.413Z,96.70
2018-09-04T02:15:02.516Z,96.80
2018-09-04T02:20:06.030Z,96.70
2018-09-04T02:25:09.486Z,96.40
2018-09-04T02:30:12.571Z,96.40
2018-09-04T02:35:15.703Z,96.50
2018-09-04T02:40:18.802Z,96.90
2018-09-04T02:45:21.890Z,97.30
2018-09-04T02:50:24.989Z,97.80
2018-09-04T02:55:28.078Z,97.10
2018-09-04T03:00:31.181Z,97.20
2018-09-04T03:05:34.253Z,97.00
2018-09-04T03:10:37.342Z,98.40
2018-09-04T03:15:40.448Z,98.60
2018-09-04T03:20:43.556Z,98.30
2018-09-04T03:25:46.648Z,98.50
2018-09-04T03:30:49.970Z,97.90
2018-09-04T03:35:53.061Z,97.70
2018-09-04T03:40:56.180Z,98.10
2018-09-04T03:45:59.277Z,97.70
2018-09-04T03:51:02.370Z,96.70
2018-09-04T03:56:05.457Z,96.60
2018-09-04T04:01:08.530Z,96.40
2018-09-04T04:06:11.624Z,96.30
2018-09-04T04:11:14.719Z,96.90
2018-09-04T04:16:17.832Z,97.70
2018-09-04T04:21:20.947Z,98.10
2018-09-04T04:26:24.029Z,98.20
2018-09-04T04:31:27.112Z,99.00
2018-09-04T04:36:30.225Z,99.80
2018-09-04T04:41:33.310Z,99.40
2018-09-04T04:46:37.189Z,99.70
2018-09-04T04:51:40.282Z,99.10
2018-09-04T04:56:43.375Z,99.30
2018-09-04T05:01:46.465Z,99.90
2018-09-04T05:06:49.562Z,99.10
2018-09-04T05:11:52.666Z,99.90
2018-09-04T05:16:55.753Z,99.90
2018-09-04T05:21:58.844Z,99.90
2018-09-04T05:27:02.005Z,99.90
2018-09-04T05:32:11.076Z,99.90
2018-09-04T05:37:15.107Z,99.90
2018-09-04T05:42:27.565Z,99.90
2018-09-04T06:03:55.595Z,99.90
2018-09-04T06:08:58.682Z,99.90
2018-09-04T06:14:01.777Z,99.90
2018-09-04T06:19:04.995Z,99.90
2018-09-04T06:24:08.105Z,99.90
2018-09-04T06:29:11.189Z,99.90
2018-09-04T06:34:14.322Z,99.90
2018-09-04T06:39:17.397Z,99.90
2018-09-04T06:44:20.492Z,99.90
2018-09-04T06:49:23.593Z,99.90
2018-09-04T06:54:26.728Z,99.90
2018-09-04T06:59:29.795Z,99.90
2018-09-04T07:20:57.752Z,99.90
2018-09-04T07:26:00.859Z,99.90
2018-09-04T07:31:03.954Z,99.90
2018-09-04T07:36:07.074Z,99.90
2018-09-04T07:41:10.176Z,99.90
2018-09-04T07:46:13.253Z,99.90
2018-09-04T07:51:16.356Z,99.90
2018-09-04T07:56:19.456Z,99.90
2018-09-04T08:01:22.561Z,99.90
2018-09-04T08:06:25.647Z,99.90
2018-09-04T08:11:28.975Z,99.90
2018-09-04T08:16:32.071Z,99.90
2018-09-04T08:21:35.894Z,99.90
2018-09-04T08:26:38.974Z,99.90
2018-09-04T08:31:42.057Z,99.90
2018-09-04T08:36:51.862Z,99.90
2018-09-04T08:41:54.950Z,99.60
2018-09-04T08:46:58.034Z,99.80
2018-09-04T08:52:01.110Z,99.20
2018-09-04T08:57:04.251Z,99.80
2018-09-04T09:02:07.331Z,98.10
2018-09-04T09:07:10.440Z,97.50
2018-09-04T09:12:13.546Z,97.40
2018-09-04T09:17:16.636Z,98.10
2018-09-04T09:22:20.169Z,97.70
2018-09-04T09:27:23.322Z,97.20
2018-09-04T09:32:26.414Z,96.20
2018-09-04T09:37:29.511Z,94.80
2018-09-04T09:42:32.588Z,95.20
2018-09-04T09:47:39.956Z,94.20
2018-09-04T09:52:43.102Z,92.60
2018-09-04T09:57:46.166Z,92.70
2018-09-04T10:02:51.429Z,90.70
2018-09-04T10:07:54.676Z,90.20
2018-09-04T10:12:57.616Z,90.10
2018-09-04T10:18:00.702Z,89.30
2018-09-04T10:23:03.793Z,86.50
2018-09-04T10:28:06.874Z,83.40
2018-09-04T10:33:09.975Z,82.30
2018-09-04T10:43:22.613Z,79.30
2018-09-04T10:48:26.470Z,78.20
2018-09-04T10:53:29.553Z,74.70
2018-09-04T10:58:32.652Z,72.10
2018-09-04T11:03:35.753Z,75.20
2018-09-04T11:08:38.838Z,72.40
2018-09-04T11:13:41.937Z,71.20
2018-09-04T11:18:45.017Z,67.30
2018-09-04T11:23:48.174Z,69.20
2018-09-04T11:28:54.921Z,68.50
2018-09-04T11:33:58.007Z,65.80
2018-09-04T11:39:01.093Z,66.60
2018-09-04T12:00:33.725Z,58.50
2018-09-04T12:05:36.826Z,59.30
2018-09-04T12:10:40.442Z,60.00
2018-09-04T12:15:43.556Z,56.80
2018-09-04T12:20:49.073Z,58.40
2018-09-04T12:25:53.545Z,58.30
2018-09-04T12:30:57.103Z,54.90
2018-09-04T12:36:00.194Z,55.90
2018-09-04T12:41:06.875Z,55.00
2018-09-04T12:46:09.950Z,54.30
2018-09-04T12:51:13.049Z,53.20
2018-09-04T12:56:16.178Z,51.40
2018-09-04T13:01:19.367Z,51.70
2018-09-04T13:06:22.462Z,50.80
2018-09-04T13:11:25.558Z,49.60
2018-09-04T13:16:28.658Z,50.80
2018-09-04T13:21:31.754Z,47.90
2018-09-04T13:26:34.849Z,48.40
2018-09-04T13:48:23.845Z,47.80
2018-09-04T13:53:27.429Z,47.00
2018-09-04T13:58:30.525Z,45.80
2018-09-04T14:03:33.626Z,45.00
2018-09-04T14:08:36.715Z,44.70
2018-09-04T14:13:39.806Z,46.10
2018-09-04T14:18:42.959Z,46.50
2018-09-04T14:23:46.076Z,46.00
2018-09-04T14:29:06.431Z,44.00
2018-09-04T14:50:16.622Z,44.90
2018-09-04T14:55:19.718Z,45.50
2018-09-04T15:00:22.830Z,43.80
2018-09-04T15:05:25.914Z,45.00
2018-09-04T15:26:53.146Z,45.90
2018-09-04T15:32:39.662Z,45.90
2018-09-04T15:37:42.741Z,45.90
2018-09-04T15:42:45.862Z,44.10
2018-09-04T15:47:48.953Z,45.80
2018-09-04T15:52:52.037Z,46.00
2018-09-04T15:57:55.128Z,45.90
2018-09-04T16:02:58.257Z,46.70
2018-09-04T16:08:01.335Z,47.60
2018-09-04T16:13:04.421Z,48.50
2018-09-04T16:18:07.648Z,48.80
2018-09-04T16:23:10.734Z,49.30
2018-09-04T16:28:13.816Z,49.70
2018-09-04T16:33:16.929Z,50.30
2018-09-04T16:38:20.038Z,50.90
2018-09-04T16:43:23.141Z,51.70
2018-09-04T16:48:26.233Z,52.30
2018-09-04T16:53:31.009Z,52.90
2018-09-04T16:58:34.474Z,53.20
2018-09-04T17:03:37.704Z,55.00
2018-09-04T17:08:41.154Z,55.40
2018-09-04T17:13:44.257Z,56.00
2018-09-04T17:18:47.685Z,56.80
2018-09-04T17:23:50.835Z,58.00
2018-09-04T17:28:54.506Z,58.50
2018-09-04T17:33:58.500Z,58.80
2018-09-04T17:39:01.582Z,58.90
2018-09-04T17:44:05.044Z,60.40
2018-09-04T17:49:08.546Z,61.00
2018-09-04T17:54:11.677Z,62.00
2018-09-04T17:59:15.326Z,62.20
2018-09-04T18:04:18.797Z,62.30
2018-09-04T18:09:22.230Z,64.00
2018-09-04T18:14:32.136Z,63.80
2018-09-04T18:19:35.849Z,65.50
2018-09-04T18:24:39.657Z,63.90
2018-09-04T18:29:42.874Z,65.90
2018-09-04T18:34:46.216Z,67.70
2018-09-04T18:39:49.345Z,69.90
2018-09-04T18:44:53.034Z,70.60
2018-09-04T18:49:56.134Z,70.80
2018-09-04T18:54:59.944Z,71.60
2018-09-04T19:00:03.558Z,72.70
2018-09-04T19:05:06.753Z,74.20
2018-09-04T19:10:10.402Z,78.10
2018-09-04T19:15:13.728Z,76.10
2018-09-04T19:20:17.353Z,78.10
2018-09-04T19:25:20.535Z,79.60
2018-09-04T19:30:23.923Z,81.20
2018-09-04T19:35:27.688Z,81.00
2018-09-04T19:40:31.317Z,82.30
2018-09-04T19:45:34.627Z,82.40
2018-09-04T19:50:37.718Z,83.40
2018-09-04T19:55:40.916Z,82.40
2018-09-04T20:00:44.112Z,81.10
2018-09-04T20:05:47.872Z,84.10
2018-09-04T20:10:51.168Z,85.10
2018-09-04T20:15:54.977Z,84.50
2018-09-04T20:20:58.338Z,84.70
2018-09-04T20:26:01.792Z,87.80
2018-09-04T20:31:07.428Z,88.30
2018-09-04T20:36:11.098Z,89.90
2018-09-04T20:41:14.634Z,90.50
2018-09-04T20:46:18.028Z,89.90
2018-09-04T20:51:21.211Z,90.80
2018-09-04T20:56:24.339Z,90.50
2018-09-04T21:01:39.146Z,90.80
2018-09-04T21:06:48.642Z,90.80
2018-09-04T21:11:51.755Z,89.70
2018-09-04T21:16:54.908Z,89.30
2018-09-04T21:21:58.043Z,87.10
2018-09-04T21:27:01.150Z,84.20
2018-09-04T21:32:04.253Z,86.60
2018-09-04T21:37:07.362Z,88.30
2018-09-04T21:42:10.509Z,90.10
2018-09-04T21:47:13.641Z,90.70
2018-09-04T21:52:16.757Z,90.60
2018-09-04T21:57:20.122Z,90.40
2018-09-04T22:02:23.239Z,89.40
2018-09-04T22:07:26.342Z,90.60
2018-09-04T22:12:29.454Z,91.00
2018-09-04T22:17:32.577Z,90.00
2018-09-04T22:22:35.723Z,91.40
2018-09-04T22:27:39.845Z,90.90
2018-09-04T22:32:42.965Z,90.80
2018-09-04T22:37:46.081Z,91.10
2018-09-04T22:42:49.194Z,91.60
2018-09-04T22:47:52.293Z,91.90
2018-09-04T22:52:55.420Z,91.60
2018-09-04T22:57:58.582Z,90.90
2018-09-04T23:03:01.670Z,91.30
2018-09-04T23:08:04.792Z,91.10
2018-09-04T23:13:07.905Z,91.50
2018-09-04T23:18:11.869Z,91.10
2018-09-04T23:23:14.983Z,91.60
2018-09-04T23:28:18.104Z,92.00
2018-09-04T23:33:21.195Z,92.00
2018-09-04T23:38:24.306Z,91.60
2018-09-04T23:43:27.423Z,91.80
2018-09-04T23:48:30.542Z,92.70
2018-09-04T23:53:33.749Z,93.00
2018-09-04T23:58:36.875Z,94.30
